Terminal Aerodrome Forecast
Issued by NWS Denver/Boulder, CO

Home | Current Version | Previous Version | Text Only | Print | Product List | Glossary On
Versions: 1 2 3 4 5 6 7 8 9 10 11 12 13 14 15 16 17 18 19 20 21 22 23 24 25 26 27 28 29 30 31
000
FTUS45 KBOU 180526
TAFDEN
TAF
KDEN 180526Z 1806/1912 31012KT P6SM FEW090
     FM180800 28010KT P6SM FEW120 SCT220
     FM181100 23006KT P6SM FEW220
     FM181600 36015KT P6SM FEW120 SCT220
     FM182100 03010KT P6SM FEW150 SCT220
     FM190100 08007KT P6SM FEW150 SCT220
     FM190300 15008KT P6SM SCT220=

USA.gov is the U.S. government's official web portal to all federal, state and local government web resources and services.